Time;durP1;ratioP1;P1;durP2;ratioP2;P2;SDS_P1;SDS_P2;PMS_P1;PMS_P2;Temp;Humidity;BMP_temperature;BMP_pressure;BME280_temperature;BME280_humidity;BME280_pressure;Samples;Min_cycle;Max_cycle;Signal;HPM_P1;HPM_P2
2023/11/20 00:01:46;;;;;;;28.70;9.05;;;;;;;9.42;100.00;99927.25;5037686;28;20128;-75
2023/11/20 00:04:11;;;;;;;43.90;10.40;;;;;;;9.45;100.00;99922.38;5060829;28;20043;-76
2023/11/20 00:06:37;;;;;;;33.90;8.65;;;;;;;9.45;100.00;99927.72;5047134;28;20033;-76
2023/11/20 00:09:02;;;;;;;44.13;11.10;;;;;;;9.43;100.00;99919.06;5028426;28;20124;-76
2023/11/20 00:11:28;;;;;;;37.88;8.63;;;;;;;9.54;100.00;99930.34;5018771;28;20056;-76
2023/11/20 00:13:53;;;;;;;42.63;9.10;;;;;;;9.59;100.00;99922.63;5048251;28;20158;-76
2023/11/20 00:16:19;;;;;;;39.80;10.17;;;;;;;9.49;100.00;99917.53;5041899;28;20037;-75
2023/11/20 00:18:44;;;;;;;54.00;9.57;;;;;;;9.57;100.00;99921.97;5041461;28;20075;-76
2023/11/20 00:21:09;;;;;;;32.73;9.23;;;;;;;9.60;100.00;99929.63;5031150;28;20041;-76
2023/11/20 00:23:35;;;;;;;53.53;8.90;;;;;;;9.59;100.00;99927.97;5044890;28;20028;-76
2023/11/20 00:26:00;;;;;;;43.67;10.83;;;;;;;9.55;100.00;99935.47;5031173;28;21053;-76
2023/11/20 00:28:26;;;;;;;43.20;10.65;;;;;;;9.54;100.00;99931.16;5027981;28;20516;-76
2023/11/20 00:30:51;;;;;;;32.77;11.70;;;;;;;9.61;100.00;99928.63;5061242;28;20049;-76
2023/11/20 00:33:16;;;;;;;44.33;11.13;;;;;;;9.62;100.00;99930.28;5014814;28;20556;-76
2023/11/20 00:35:42;;;;;;;33.07;9.93;;;;;;;9.65;100.00;99925.44;5031188;28;20425;-76
2023/11/20 00:38:08;;;;;;;37.67;12.13;;;;;;;9.67;100.00;99928.75;5029727;28;20033;-75
2023/11/20 00:40:33;;;;;;;34.70;9.68;;;;;;;9.67;100.00;99925.28;5037717;28;20020;-75
2023/11/20 00:42:59;;;;;;;33.78;11.65;;;;;;;9.70;100.00;99930.25;5041253;28;20510;-76
2023/11/20 00:45:24;;;;;;;44.50;11.50;;;;;;;9.67;100.00;99915.44;5021607;28;20504;-76
2023/11/20 00:47:49;;;;;;;45.93;11.67;;;;;;;9.66;100.00;99919.09;5040704;28;20094;-75
2023/11/20 00:50:16;;;;;;;;;;;;;;;9.70;100.00;99924.91;5030690;28;20342;-76
2023/11/20 00:52:42;;;;;;;27.27;8.52;;;;;;;9.66;100.00;99921.75;5031042;28;19912;-76
2023/11/20 00:55:10;;;;;;;35.37;9.97;;;;;;;9.65;100.00;99920.09;5040103;28;20043;-75
2023/11/20 00:57:36;;;;;;;37.88;10.13;;;;;;;9.68;100.00;99926.91;5029819;28;20147;-75
2023/11/20 01:00:03;;;;;;;45.53;10.40;;;;;;;9.66;100.00;99924.41;5040201;28;20033;-76
2023/11/20 01:02:29;;;;;;;41.53;10.05;;;;;;;9.64;100.00;99915.75;5034712;28;20043;-76
2023/11/20 01:04:54;;;;;;;31.50;8.83;;;;;;;9.62;100.00;99922.28;5034716;28;20032;-76
2023/11/20 01:07:19;;;;;;;40.57;9.93;;;;;;;9.55;100.00;99919.47;5034639;28;20035;-75
2023/11/20 01:09:45;;;;;;;33.57;8.93;;;;;;;9.56;100.00;99929.16;5028863;28;20024;-76
2023/11/20 01:12:10;;;;;;;35.37;9.57;;;;;;;9.59;100.00;99928.78;5039682;28;20029;-75
2023/11/20 01:14:35;;;;;;;44.90;10.13;;;;;;;9.61;100.00;99931.28;5060876;28;20128;-76
2023/11/20 01:17:01;;;;;;;40.50;9.20;;;;;;;9.61;100.00;99937.44;5034457;28;20056;-75
2023/11/20 01:19:26;;;;;;;38.23;11.33;;;;;;;9.58;100.00;99929.81;5065534;28;20102;-76
2023/11/20 01:21:51;;;;;;;42.40;10.53;;;;;;;9.61;100.00;99932.13;5040671;28;20036;-76
2023/11/20 01:24:17;;;;;;;30.13;9.53;;;;;;;9.61;100.00;99926.78;5050803;28;20035;-76
2023/11/20 01:26:42;;;;;;;36.10;9.57;;;;;;;9.64;100.00;99930.94;5051300;28;20471;-76
2023/11/20 01:29:08;;;;;;;36.97;10.97;;;;;;;9.62;100.00;99928.47;5043967;28;20028;-76
2023/11/20 01:31:34;;;;;;;50.47;14.10;;;;;;;9.60;100.00;99921.63;5032552;28;20029;-76
2023/11/20 01:33:59;;;;;;;50.60;12.07;;;;;;;9.56;100.00;99925.66;5034266;28;20102;-76
2023/11/20 01:36:25;;;;;;;44.70;13.25;;;;;;;9.58;100.00;99926.31;5047574;28;20029;-76
2023/11/20 01:38:50;;;;;;;46.30;12.27;;;;;;;9.64;100.00;99928.28;5029382;28;20461;-75
2023/11/20 01:41:19;;;;;;;47.50;13.33;;;;;;;9.62;100.00;99928.47;5017434;28;20041;-76
2023/11/20 01:43:44;;;;;;;42.15;12.52;;;;;;;9.52;100.00;99922.50;5050586;28;20368;-75
2023/11/20 01:46:12;;;;;;;48.43;13.23;;;;;;;9.61;100.00;99926.78;5027110;28;20047;-76
2023/11/20 01:48:40;;;;;;;58.45;15.07;;;;;;;9.56;100.00;99923.81;5049626;28;20437;-75
2023/11/20 01:51:07;;;;;;;44.15;14.15;;;;;;;9.61;100.00;99932.13;5049867;28;20020;-76
2023/11/20 01:53:34;;;;;;;45.83;13.57;;;;;;;9.56;100.00;99929.16;5063984;28;20051;-76
2023/11/20 01:56:02;;;;;;;45.42;14.23;;;;;;;9.58;100.00;99932.47;5038990;28;20514;-76
2023/11/20 01:58:28;;;;;;;49.28;13.65;;;;;;;9.55;100.00;99916.81;5030654;28;20116;-76
2023/11/20 02:00:54;;;;;;;47.58;13.25;;;;;;;9.60;100.00;99941.13;5038417;28;20416;-76
2023/11/20 02:03:20;;;;;;;49.10;15.05;;;;;;;9.55;100.00;99926.66;5047012;28;20028;-75
2023/11/20 02:05:46;;;;;;;53.28;14.77;;;;;;;9.57;100.00;99936.13;5033716;28;20106;-76
2023/11/20 02:08:13;;;;;;;;;;;;;;;9.61;100.00;99939.28;5034031;28;20038;-75
2023/11/20 02:10:40;;;;;;;49.58;13.88;;;;;;;9.63;100.00;99940.78;5033275;28;20409;-76
2023/11/20 02:13:06;;;;;;;44.17;13.07;;;;;;;9.61;100.00;99932.13;5049215;28;20029;-76
2023/11/20 02:15:31;;;;;;;;;;;;;;;9.61;100.00;99940.13;5041197;28;20068;-75
2023/11/20 02:17:58;;;;;;;51.83;13.35;;;;;;;9.55;100.00;99938.13;5030513;28;19951;-76
2023/11/20 02:20:26;;;;;;;45.47;13.77;;;;;;;9.57;100.00;99925.47;5049691;28;20107;-76
2023/11/20 02:22:51;;;;;;;45.53;13.18;;;;;;;9.60;100.00;99930.47;5044572;28;20317;-76
2023/11/20 02:25:18;;;;;;;35.50;12.35;;;;;;;9.64;100.00;99925.59;5042318;28;20017;-76
2023/11/20 02:27:58;;;;;;;42.60;12.15;;;;;;;9.64;100.00;99931.75;5049491;28;20511;-75
2023/11/20 02:30:25;;;;;;;37.20;12.90;;;;;;;9.62;100.00;99933.78;5037114;28;20040;-76
2023/11/20 02:32:51;;;;;;;48.47;14.32;;;;;;;9.62;100.00;99939.13;5019558;28;20486;-76
2023/11/20 02:35:17;;;;;;;46.80;15.20;;;;;;;9.64;100.00;99930.94;5041460;28;20033;-75
2023/11/20 02:37:43;;;;;;;;;;;;;;;9.68;100.00;99940.25;5025022;28;20502;-76
2023/11/20 02:40:10;;;;;;;51.03;15.13;;;;;;;9.68;100.00;99932.25;5035816;28;19940;-76
2023/11/20 02:42:36;;;;;;;37.28;13.88;;;;;;;9.66;100.00;99931.59;5019881;28;20032;-76
2023/11/20 02:45:02;;;;;;;40.92;15.43;;;;;;;9.65;100.00;99929.94;5013176;28;20033;-76
2023/11/20 02:47:27;;;;;;;45.08;14.35;;;;;;;9.63;100.00;99918.63;5041415;28;20433;-75
2023/11/20 02:49:53;;;;;;;;;;;;;;;9.63;100.00;99922.13;5043133;28;20052;-76
2023/11/20 02:52:19;;;;;;;62.72;15.30;;;;;;;9.64;100.00;99921.09;5053455;28;19951;-77
2023/11/20 02:54:44;;;;;;;34.83;13.93;;;;;;;9.64;100.00;99922.94;5024397;28;20391;-76
2023/11/20 02:57:10;;;;;;;42.40;13.77;;;;;;;9.66;100.00;99921.75;5045238;28;20090;-76
2023/11/20 02:59:35;;;;;;;39.70;11.85;;;;;;;9.64;100.00;99926.44;5042775;28;20088;-76
2023/11/20 03:02:01;;;;;;;48.07;15.07;;;;;;;9.61;100.00;99921.47;5048881;28;20562;-76
2023/11/20 03:04:27;;;;;;;31.23;12.88;;;;;;;9.59;100.00;99917.31;5064323;28;20047;-76
2023/11/20 03:06:52;;;;;;;44.13;11.43;;;;;;;9.60;100.00;99919.81;5060108;28;20024;-75
2023/11/20 03:09:17;;;;;;;34.43;11.97;;;;;;;9.62;100.00;99925.81;5014620;28;20339;-76
2023/11/20 03:11:43;;;;;;;78.13;17.47;;;;;;;9.60;100.00;99922.47;5049279;28;20379;-76
2023/11/20 03:14:09;;;;;;;48.88;13.90;;;;;;;9.59;100.00;99923.47;5045727;28;20317;-76
2023/11/20 03:16:34;;;;;;;57.67;14.60;;;;;;;9.58;100.00;99924.47;5028338;28;20468;-76
2023/11/20 03:19:00;;;;;;;47.67;13.90;;;;;;;9.55;100.00;99922.16;5046813;28;20324;-76
2023/11/20 03:21:26;;;;;;;29.35;11.52;;;;;;;9.61;100.00;99923.31;5042901;28;20123;-78
2023/11/20 03:23:52;;;;;;;32.47;11.55;;;;;;;9.58;100.00;99924.47;5046249;28;20051;-77
2023/11/20 03:26:22;;;;;;;36.00;14.23;;;;;;;9.62;100.00;99924.94;5040375;28;20086;-76
2023/11/20 03:28:48;;;;;;;46.72;13.88;;;;;;;9.57;100.00;99924.66;5042970;28;20032;-76
2023/11/20 03:31:14;;;;;;;47.08;14.93;;;;;;;9.48;100.00;99927.38;5038905;28;20024;-75
2023/11/20 03:33:39;;;;;;;65.10;15.68;;;;;;;9.57;100.00;99940.63;5040608;28;20391;-77
2023/11/20 03:36:06;;;;;;;60.67;16.87;;;;;;;9.57;100.00;99933.47;5032202;28;20031;-75
2023/11/20 03:38:31;;;;;;;60.40;16.98;;;;;;;9.52;100.00;99925.19;5048672;28;20299;-76
2023/11/20 03:40:57;;;;;;;41.30;15.20;;;;;;;9.49;100.00;99923.69;5043667;28;20025;-75
2023/11/20 03:43:23;;;;;;;46.13;14.67;;;;;;;9.53;100.00;99926.84;5043607;28;20044;-76
2023/11/20 03:46:07;;;;;;;93.00;20.13;;;;;;;9.51;100.00;99924.34;5066471;28;20580;-77
2023/11/20 03:48:51;;;;;;;47.75;16.52;;;;;;;9.50;100.00;99929.84;5051324;28;20133;-77
2023/11/20 03:51:35;;;;;;;56.10;14.38;;;;;;;9.47;100.00;99925.69;5066254;28;20047;-79
2023/11/20 03:54:19;;;;;;;69.05;16.23;;;;;;;9.43;100.00;99912.91;5057896;28;20128;-76
2023/11/20 03:56:45;;;;;;;57.23;17.03;;;;;;;9.44;100.00;99917.25;5044121;28;20459;-75
2023/11/20 03:59:10;;;;;;;41.08;13.70;;;;;;;9.45;100.00;99918.91;5040626;28;20090;-79
2023/11/20 04:01:36;;;;;;;38.33;12.30;;;;;;;9.50;100.00;99919.19;5043708;28;20037;-77
2023/11/20 04:04:01;;;;;;;53.23;14.70;;;;;;;9.46;100.00;99915.25;5021333;28;20033;-76
2023/11/20 04:06:26;;;;;;;45.10;16.40;;;;;;;9.39;100.00;99900.94;5048338;28;20433;-75
2023/11/20 04:08:52;;;;;;;75.57;17.83;;;;;;;9.37;100.00;99913.63;5064181;28;20028;-76
2023/11/20 04:11:17;;;;;;;42.07;13.63;;;;;;;9.39;100.00;99911.59;5025241;28;20063;-76
2023/11/20 04:13:43;;;;;;;48.37;14.63;;;;;;;9.43;100.00;99923.56;5047706;28;20765;-76
2023/11/20 04:16:10;;;;;;;50.50;13.47;;;;;;;9.45;100.00;99922.38;5023171;28;20120;-76
2023/11/20 04:18:35;;;;;;;55.65;15.00;;;;;;;9.41;100.00;99921.09;5046451;28;20275;-76
2023/11/20 04:21:03;;;;;;;37.73;14.23;;;;;;;9.42;100.00;99925.41;5048253;28;20517;-77
2023/11/20 04:23:28;;;;;;;33.38;12.35;;;;;;;9.41;100.00;99921.09;5020758;28;20275;-76
2023/11/20 04:25:53;;;;;;;33.35;12.95;;;;;;;9.38;100.00;99925.94;5066304;28;20082;-77
2023/11/20 04:28:19;;;;;;;42.67;14.87;;;;;;;9.37;100.00;99932.28;5048124;28;20060;-76
2023/11/20 04:30:44;;;;;;;98.43;21.63;;;;;;;9.33;100.00;99917.63;5048056;28;20878;-77
2023/11/20 04:33:09;;;;;;;66.03;17.73;;;;;;;9.34;100.00;99924.59;5046560;28;20570;-76
2023/11/20 04:35:35;;;;;;;72.10;16.37;;;;;;;9.32;100.00;99919.47;5052491;28;20447;-76
2023/11/20 04:38:00;;;;;;;68.60;16.67;;;;;;;9.32;100.00;99927.47;5061678;28;20098;-79
2023/11/20 04:40:25;;;;;;;31.33;11.93;;;;;;;9.31;100.00;99915.13;5035001;28;20037;-77
2023/11/20 04:42:51;;;;;;;35.40;11.90;;;;;;;9.32;100.00;99921.28;5040225;28;20033;-80
2023/11/20 04:45:16;;;;;;;68.87;16.73;;;;;;;9.29;100.00;99920.66;5044348;28;20055;-75
2023/11/20 04:47:42;;;;;;;38.43;12.83;;;;;;;9.28;100.00;99926.97;5054916;28;20486;-75
2023/11/20 04:50:10;;;;;;;47.40;14.43;;;;;;;9.29;100.00;99919.81;5027005;28;20060;-75
2023/11/20 04:52:36;;;;;;;42.50;13.90;;;;;;;9.32;100.00;99924.81;5036061;28;20024;-77
2023/11/20 04:55:05;;;;;;;46.92;14.90;;;;;;;9.26;100.00;99918.31;5062233;28;20108;-76
2023/11/20 04:57:31;;;;;;;34.50;12.85;;;;;;;9.25;100.00;99924.66;5066379;28;20481;-77
2023/11/20 04:59:57;;;;;;;42.88;16.08;;;;;;;9.29;100.00;99931.31;5027204;28;20037;-77
2023/11/20 05:02:25;;;;;;;;;;;;;;;9.32;100.00;99931.94;5060416;28;20025;-77
2023/11/20 05:04:50;;;;;;;55.60;17.08;;;;;;;9.26;100.00;99928.16;5051325;28;19916;-79
2023/11/20 05:07:16;;;;;;;36.03;11.55;;;;;;;9.23;100.00;99926.66;5061163;28;20068;-76
2023/11/20 05:09:41;;;;;;;76.13;17.03;;;;;;;9.14;100.00;99924.22;5051783;28;20028;-75
2023/11/20 05:12:07;;;;;;;40.47;13.40;;;;;;;9.13;100.00;99930.53;5043125;28;20392;-76
2023/11/20 05:14:33;;;;;;;42.08;13.77;;;;;;;9.16;100.00;99933.69;5023225;28;20051;-76
2023/11/20 05:16:58;;;;;;;32.72;13.57;;;;;;;9.20;100.00;99942.16;5051576;28;20627;-75
2023/11/20 05:19:24;;;;;;;34.83;12.73;;;;;;;9.19;100.00;99938.66;5033785;28;20024;-76
2023/11/20 05:21:50;;;;;;;48.53;15.17;;;;;;;9.24;100.00;99946.97;5051386;28;20071;-76
2023/11/20 05:24:15;;;;;;;37.35;12.30;;;;;;;9.23;100.00;99939.16;5040761;28;20278;-79
2023/11/20 05:26:41;;;;;;;70.53;15.85;;;;;;;9.25;100.00;99943.31;5049327;28;20040;-78
2023/11/20 05:29:07;;;;;;;51.20;16.93;;;;;;;9.23;100.00;99945.31;5065322;28;20028;-75
2023/11/20 05:31:33;;;;;;;79.88;17.25;;;;;;;9.21;100.00;99952.63;5058872;28;20289;-75
2023/11/20 05:33:58;;;;;;;53.13;14.57;;;;;;;9.30;100.00;99948.94;5044202;28;20037;-75
2023/11/20 05:36:23;;;;;;;41.50;14.70;;;;;;;9.31;100.00;99949.75;5049994;28;20032;-76
2023/11/20 05:38:49;;;;;;;70.20;16.30;;;;;;;9.21;100.00;99947.31;5068987;28;20028;-75
2023/11/20 05:41:14;;;;;;;35.17;12.10;;;;;;;9.25;100.00;99951.28;5026631;28;20043;-76
2023/11/20 05:43:40;;;;;;;39.37;15.10;;;;;;;9.29;100.00;99949.97;5068428;28;20279;-76
2023/11/20 05:46:05;;;;;;;51.78;14.02;;;;;;;9.32;100.00;99943.44;5050948;28;20040;-79
2023/11/20 05:48:34;;;;;;;48.30;15.10;;;;;;;9.37;100.00;99942.94;5045947;28;20427;-77
2023/11/20 05:50:59;;;;;;;41.63;14.55;;;;;;;9.38;100.00;99953.38;5039018;28;20075;-76
2023/11/20 05:53:25;;;;;;;46.73;15.30;;;;;;;9.40;100.00;99962.03;5045040;28;20028;-77
2023/11/20 05:55:50;;;;;;;95.20;21.13;;;;;;;9.36;100.00;99962.56;5034321;28;20471;-78
2023/11/20 05:58:16;;;;;;;95.80;21.13;;;;;;;9.40;100.00;99959.38;5044021;28;20039;-76
2023/11/20 06:00:41;;;;;;;57.90;19.30;;;;;;;9.45;100.00;99973.00;5045617;28;20490;-75
2023/11/20 06:03:07;;;;;;;52.22;17.40;;;;;;;9.50;100.00;99969.81;5042328;28;20079;-76
2023/11/20 06:05:33;;;;;;;136.68;22.45;;;;;;;9.44;100.00;99981.19;5024868;28;20029;-75
2023/11/20 06:07:58;;;;;;;95.03;21.15;;;;;;;9.45;100.00;99983.66;5037803;28;20494;-76
2023/11/20 06:10:23;;;;;;;57.57;20.93;;;;;;;9.50;100.00;99984.00;5023358;28;20043;-75
2023/11/20 06:12:49;;;;;;;144.00;24.83;;;;;;;9.48;100.00;99979.81;5050437;28;20032;-76
2023/11/20 06:15:14;;;;;;;72.37;20.03;;;;;;;9.51;100.00;99982.16;5062153;28;20072;-76
2023/11/20 06:17:39;;;;;;;71.33;20.90;;;;;;;9.50;100.00;99967.16;5033850;28;20021;-75
2023/11/20 06:20:08;;;;;;;75.47;21.27;;;;;;;9.48;100.00;99982.47;5042156;28;20910;-76
2023/11/20 06:22:33;;;;;;;100.93;22.35;;;;;;;9.51;100.00;99982.97;5013487;28;20021;-75
2023/11/20 06:24:59;;;;;;;135.00;22.17;;;;;;;9.52;100.00;99987.28;5030060;28;20711;-76
2023/11/20 06:27:24;;;;;;;122.03;21.27;;;;;;;9.50;100.00;99986.66;5040582;28;20021;-76
2023/11/20 06:29:50;;;;;;;212.10;27.13;;;;;;;9.54;100.00;99995.13;5049764;28;20032;-75
2023/11/20 06:32:15;;;;;;;69.55;18.92;;;;;;;9.49;100.00;100000.16;5067450;28;20075;-77
2023/11/20 06:34:40;;;;;;;113.60;22.20;;;;;;;9.53;100.00;100004.13;5038985;28;20419;-76
2023/11/20 06:37:06;;;;;;;236.57;28.00;;;;;;;9.52;100.00;100016.59;5049928;28;20040;-77
2023/11/20 06:39:32;;;;;;;79.00;20.02;;;;;;;9.52;100.00;100005.94;5049886;28;20407;-75
2023/11/20 06:41:57;;;;;;;72.00;18.63;;;;;;;9.50;100.00;100015.13;5060205;28;20033;-75
2023/11/20 06:44:23;;;;;;;108.53;21.83;;;;;;;9.54;100.00;100020.94;5021371;28;20036;-76
2023/11/20 06:46:48;;;;;;;262.93;30.80;;;;;;;9.48;100.00;100014.44;5032704;28;20107;-77
2023/11/20 06:49:14;;;;;;;63.97;19.80;;;;;;;9.48;100.00;100014.44;5021575;28;20028;-75
2023/11/20 06:51:42;;;;;;;189.68;32.90;;;;;;;9.53;100.00;100020.13;5056966;28;20016;-78
2023/11/20 06:54:08;;;;;;;83.47;20.88;;;;;;;9.49;100.00;100021.47;5049307;28;20048;-75
2023/11/20 06:56:35;;;;;;;80.55;19.65;;;;;;;9.51;100.00;100022.13;5043419;28;20008;-75
2023/11/20 06:59:01;;;;;;;105.22;24.48;;;;;;;9.55;100.00;100027.91;5067786;28;20043;-76
2023/11/20 07:01:26;;;;;;;58.47;18.33;;;;;;;9.54;100.00;100024.44;5049323;28;20020;-76
2023/11/20 07:03:53;;;;;;;72.70;18.43;;;;;;;9.57;100.00;100036.56;5049321;28;20032;-76
2023/11/20 07:06:19;;;;;;;65.15;19.98;;;;;;;9.58;100.00;100031.09;5067038;28;20028;-76
2023/11/20 07:08:44;;;;;;;62.95;19.55;;;;;;;9.55;100.00;100043.91;5044457;28;20483;-79
2023/11/20 07:11:10;;;;;;;133.50;25.75;;;;;;;9.58;100.00;100047.06;5049562;28;20101;-76
2023/11/20 07:13:35;;;;;;;76.13;20.70;;;;;;;9.61;100.00;100054.72;5050174;28;20119;-76
2023/11/20 07:16:01;;;;;;;204.57;25.17;;;;;;;9.60;100.00;100047.72;5040613;28;20043;-76
2023/11/20 07:18:27;;;;;;;78.78;21.25;;;;;;;9.63;100.00;100052.72;5027320;28;20032;-77
2023/11/20 07:20:53;;;;;;;133.60;27.03;;;;;;;9.65;100.00;100057.88;5026889;28;20032;-78
2023/11/20 07:23:19;;;;;;;73.43;23.13;;;;;;;9.66;100.00;100047.03;5033312;28;20061;-77
2023/11/20 07:25:45;;;;;;;76.40;21.00;;;;;;;9.71;100.00;100055.31;5060650;28;20115;-79
2023/11/20 07:28:10;;;;;;;117.70;25.50;;;;;;;9.72;100.00;100059.66;5062394;28;20772;-75
2023/11/20 07:30:37;;;;;;;160.48;29.42;;;;;;;9.71;100.00;100058.00;5042938;28;20038;-75
2023/11/20 07:33:02;;;;;;;;;;;;;;;9.73;100.00;100068.50;5031788;28;20067;-76
2023/11/20 07:35:28;;;;;;;175.90;27.73;;;;;;;9.66;100.00;100051.53;5024770;28;19912;-75
2023/11/20 07:37:53;;;;;;;111.90;25.13;;;;;;;9.68;100.00;100055.69;5024220;28;20032;-76
2023/11/20 07:40:19;;;;;;;101.70;23.63;;;;;;;9.73;100.00;100068.50;5043486;28;20093;-76
2023/11/20 07:42:46;;;;;;;263.17;30.77;;;;;;;9.66;100.00;100067.53;5047361;28;20669;-76
2023/11/20 07:45:12;;;;;;;160.20;31.83;;;;;;;9.72;100.00;100061.50;5030410;28;20045;-76
2023/11/20 07:47:39;;;;;;;104.55;26.02;;;;;;;9.79;100.00;100061.66;5042320;28;20033;-75
2023/11/20 07:50:04;;;;;;;;;;;;;;;9.83;100.00;100065.59;5046928;28;20040;-77
2023/11/20 07:52:31;;;;;;;192.18;29.92;;;;;;;9.83;100.00;100068.28;5064494;28;19912;-76
2023/11/20 07:54:56;;;;;;;;;;;;;;;9.83;100.00;100069.13;5048586;28;20032;-76
2023/11/20 07:57:25;;;;;;;106.07;25.75;;;;;;;9.78;100.00;100057.31;5017262;28;19915;-76
2023/11/20 07:59:51;;;;;;;266.88;32.70;;;;;;;9.85;100.00;100060.94;5031794;28;20036;-75
2023/11/20 08:02:17;;;;;;;121.88;26.98;;;;;;;9.84;100.00;100053.94;5058085;28;20033;-76
2023/11/20 08:04:43;;;;;;;148.52;24.73;;;;;;;9.87;100.00;100058.94;5037646;28;20087;-76
2023/11/20 08:07:09;;;;;;;109.10;22.30;;;;;;;9.93;100.00;100063.56;5036048;28;20044;-76
2023/11/20 08:09:37;;;;;;;120.30;24.75;;;;;;;9.93;100.00;100063.56;5031382;28;20032;-78
2023/11/20 08:12:04;;;;;;;314.83;36.42;;;;;;;9.98;100.00;100071.88;5065737;28;20052;-75
2023/11/20 08:14:34;;;;;;;95.13;23.58;;;;;;;9.98;100.00;100074.53;5042725;28;20047;-76
2023/11/20 08:17:00;;;;;;;90.43;23.67;;;;;;;9.98;100.00;100065.72;5047879;28;20052;-75
2023/11/20 08:19:26;;;;;;;91.05;21.38;;;;;;;10.01;100.00;100065.34;5065976;28;20020;-76
2023/11/20 08:21:54;;;;;;;68.68;19.17;;;;;;;10.03;100.00;100072.16;5047914;28;20037;-75
2023/11/20 08:24:20;;;;;;;110.43;22.23;;;;;;;10.04;100.00;100073.81;5029851;28;20101;-78
2023/11/20 08:26:49;;;;;;;83.90;20.48;;;;;;;10.09;100.00;100084.81;5044190;28;20024;-75
2023/11/20 08:29:18;;;;;;;83.85;22.20;;;;;;;10.12;100.00;100078.28;5044725;28;20586;-77
2023/11/20 08:31:44;;;;;;;276.63;29.98;;;;;;;9.85;100.00;100067.09;5047803;28;20329;-78
2023/11/20 08:34:09;;;;;;;223.73;26.48;;;;;;;9.80;100.00;100073.97;5063540;28;20135;-76
2023/11/20 08:36:35;;;;;;;97.83;22.90;;;;;;;9.90;100.00;100063.91;5022794;28;20505;-75
2023/11/20 08:39:02;;;;;;;120.40;23.00;;;;;;;10.00;100.00;100072.53;5031327;28;20478;-77
2023/11/20 08:41:29;;;;;;;122.97;23.63;;;;;;;10.10;100.00;100081.13;5045530;28;20495;-77
2023/11/20 08:43:55;;;;;;;74.40;21.92;;;;;;;10.18;100.00;100082.91;5042108;28;20052;-77
2023/11/20 08:46:20;;;;;;;99.38;21.45;;;;;;;9.93;100.00;100075.06;5066199;28;20153;-76
2023/11/20 08:48:45;;;;;;;79.30;20.03;;;;;;;10.12;100.00;100078.28;5039753;28;20050;-75
2023/11/20 08:51:11;;;;;;;66.70;19.73;;;;;;;10.21;100.00;100092.41;5065664;28;20024;-76
2023/11/20 08:53:36;;;;;;;117.27;22.23;;;;;;;10.15;100.00;100089.44;5057269;28;20364;-75
2023/11/20 08:56:02;;;;;;;72.03;21.33;;;;;;;10.21;100.00;100090.59;5031119;28;20727;-75
2023/11/20 08:58:28;;;;;;;75.80;22.40;;;;;;;10.26;100.00;100092.72;5057091;28;20051;-76
2023/11/20 09:00:53;;;;;;;76.57;21.90;;;;;;;10.29;100.00;100089.72;5047282;28;20017;-76
2023/11/20 09:03:18;;;;;;;72.87;20.83;;;;;;;10.34;100.00;100085.50;5027649;28;20072;-75
2023/11/20 09:05:43;;;;;;;104.83;23.47;;;;;;;10.36;100.00;100096.00;5027667;28;20044;-75
2023/11/20 09:08:09;;;;;;;84.50;20.40;;;;;;;10.39;100.00;100092.16;5035097;28;20129;-77
2023/11/20 09:10:34;;;;;;;63.33;20.67;;;;;;;10.43;100.00;100091.63;5030555;28;20036;-78
2023/11/20 09:13:01;;;;;;;71.43;19.53;;;;;;;10.47;100.00;100098.28;5074235;22;20499;-79
2023/11/20 09:15:27;;;;;;;63.50;16.80;;;;;;;10.48;100.00;100097.25;5022275;28;20026;-79
2023/11/20 09:17:52;;;;;;;49.95;18.42;;;;;;;10.43;100.00;100091.63;5030672;28;20493;-80
2023/11/20 09:20:20;;;;;;;67.78;17.88;;;;;;;10.44;100.00;100093.31;5017620;28;20046;-79
2023/11/20 09:22:47;;;;;;;48.85;16.42;;;;;;;10.45;100.00;100092.28;5030027;28;20115;-80
2023/11/20 09:25:12;;;;;;;;;;;;;;;10.39;100.00;100090.31;4976778;28;20515;-80
2023/11/20 09:27:37;;;;;;;116.28;23.33;;;;;;;10.37;100.00;100086.97;5033275;28;19913;-79
2023/11/20 09:30:04;;;;;;;74.77;20.63;;;;;;;10.39;100.00;100094.81;5028514;28;20114;-79
2023/11/20 09:32:30;;;;;;;66.85;20.52;;;;;;;10.42;100.00;100097.13;4993481;28;20072;-78
2023/11/20 09:34:55;;;;;;;96.37;22.37;;;;;;;10.05;100.00;100086.16;4972998;28;20083;-78
2023/11/20 09:37:20;;;;;;;107.87;21.43;;;;;;;9.83;100.00;100084.25;4986323;28;20506;-80
2023/11/20 09:39:46;;;;;;;60.70;18.60;;;;;;;9.75;100.00;100097.66;4994779;28;20033;-79
2023/11/20 09:42:14;;;;;;;90.03;19.63;;;;;;;9.72;100.00;100107.66;4988446;28;20033;-79
2023/11/20 09:44:43;;;;;;;81.20;19.15;;;;;;;9.77;100.00;100100.97;4993510;28;20281;-79
2023/11/20 09:47:13;;;;;;;58.70;19.08;;;;;;;9.87;100.00;100106.91;4996085;28;20120;-80
2023/11/20 09:49:41;;;;;;;78.40;16.65;;;;;;;9.84;100.00;100104.59;5008139;28;20061;-78
2023/11/20 09:52:07;;;;;;;67.03;17.85;;;;;;;9.79;100.00;100098.97;4967902;28;20088;-78
2023/11/20 09:54:38;;;;;;;75.45;17.48;;;;;;;9.79;100.00;100107.78;4979750;28;20036;-79
2023/11/20 09:57:05;;;;;;;51.10;15.80;;;;;;;9.96;100.00;100121.06;5015923;28;20959;-78
2023/11/20 09:59:31;;;;;;;54.15;16.52;;;;;;;10.03;100.00;100116.69;5003072;28;20041;-79
2023/11/20 10:01:58;;;;;;;44.15;14.90;;;;;;;10.20;100.00;100122.75;5027224;28;20022;-79
2023/11/20 10:04:24;;;;;;;50.55;16.35;;;;;;;10.32;100.00;100126.72;5025710;28;20046;-78
2023/11/20 10:06:53;;;;;;;41.20;15.38;;;;;;;10.34;100.00;100106.03;5001342;28;20069;-79
2023/11/20 10:09:23;;;;;;;45.63;15.88;;;;;;;10.45;100.00;100110.13;4987675;28;20033;-77
2023/11/20 10:11:52;;;;;;;37.30;15.02;;;;;;;10.50;100.00;100113.94;4986604;28;20436;-78
2023/11/20 10:14:19;;;;;;;38.08;14.82;;;;;;;10.47;100.00;100108.94;5017719;28;20400;-79
2023/11/20 10:16:51;;;;;;;37.60;12.73;;;;;;;10.39;100.00;100105.50;5002635;28;20033;-78
2023/11/20 10:19:16;;;;;;;34.83;13.82;;;;;;;10.47;100.00;100100.13;5004195;28;20471;-78
2023/11/20 10:21:42;;;;;;;33.35;13.15;;;;;;;10.60;100.00;100100.34;5000244;28;20030;-78
2023/11/20 10:24:11;;;;;;;40.07;11.60;;;;;;;10.68;100.00;100100.28;5031246;28;20401;-78
2023/11/20 10:26:40;;;;;;;37.88;14.35;;;;;;;10.81;100.00;100106.84;4974601;28;20277;-78
2023/11/20 10:29:09;;;;;;;39.25;12.13;;;;;;;10.83;100.00;100094.16;4985345;28;20038;-78
2023/11/20 10:31:45;;;;;;;35.70;14.18;;;;;;;10.84;100.00;100096.66;4990295;28;20492;-79
2023/11/20 10:34:11;;;;;;;29.63;10.73;;;;;;;10.78;100.00;100087.50;5001951;28;20484;-78
2023/11/20 10:36:38;;;;;;;32.50;11.77;;;;;;;10.75;100.00;100087.06;5005175;28;20037;-78
2023/11/20 10:39:04;;;;;;;48.10;16.95;;;;;;;10.21;100.00;100066.56;5014986;28;20031;-78
2023/11/20 10:41:30;;;;;;;40.30;17.30;;;;;;;10.01;100.00;100076.03;5025707;28;20089;-78
2023/11/20 10:43:55;;;;;;;43.47;17.75;;;;;;;10.26;100.00;100084.72;4993810;28;20027;-79
2023/11/20 10:46:23;;;;;;;38.88;14.73;;;;;;;10.43;100.00;100091.63;5011598;28;20042;-78
2023/11/20 10:48:49;;;;;;;37.85;13.45;;;;;;;10.56;100.00;100086.53;4991725;28;20026;-78
2023/11/20 10:51:19;;;;;;;39.70;13.57;;;;;;;10.63;100.00;100080.47;5001650;28;20480;-76
2023/11/20 10:53:58;;;;;;;30.27;12.57;;;;;;;10.66;100.00;100080.13;5004271;28;20052;-77
2023/11/20 10:56:26;;;;;;;33.03;11.48;;;;;;;10.71;100.00;100086.56;4997934;28;20045;-78
2023/11/20 10:58:54;;;;;;;32.13;10.95;;;;;;;10.74;100.00;100082.72;5017809;28;20033;-78
2023/11/20 11:01:19;;;;;;;34.40;12.55;;;;;;;10.89;100.00;100083.59;4993248;28;20095;-77
2023/11/20 11:03:45;;;;;;;30.73;11.50;;;;;;;10.93;100.00;100081.38;4998029;28;20026;-77
2023/11/20 11:06:12;;;;;;;22.53;9.87;;;;;;;10.99;100.00;100086.00;4973966;28;20068;-76
2023/11/20 11:08:41;;;;;;;29.25;10.15;;;;;;;10.98;100.00;100085.19;5030983;28;20119;-77
2023/11/20 11:11:07;;;;;;;26.60;10.60;;;;;;;10.95;100.00;100080.19;5015548;28;20503;-77